createdAt,value
2022-12-12T00:01:31.938Z,17.63
2022-12-12T00:04:00.444Z,16.63
2022-12-12T00:06:30.209Z,18.17
2022-12-12T00:08:58.247Z,17.03
2022-12-12T00:11:27.535Z,17.50
2022-12-12T00:13:55.863Z,17.27
2022-12-12T00:16:24.224Z,17.90
2022-12-12T00:18:52.341Z,18.13
2022-12-12T00:21:23.796Z,17.90
2022-12-12T00:23:53.684Z,18.33
2022-12-12T00:26:23.819Z,19.30
2022-12-12T00:28:52.268Z,19.77
2022-12-12T00:31:23.059Z,19.27
2022-12-12T00:33:51.528Z,20.67
2022-12-12T00:36:21.744Z,20.07
2022-12-12T00:38:50.078Z,19.83
2022-12-12T00:41:19.648Z,21.70
2022-12-12T00:43:47.682Z,21.07
2022-12-12T00:46:17.159Z,21.87
2022-12-12T00:48:45.462Z,20.87
2022-12-12T00:51:19.456Z,22.83
2022-12-12T00:53:48.174Z,21.67
2022-12-12T00:56:16.926Z,20.60
2022-12-12T00:58:46.372Z,21.83
2022-12-12T01:01:16.314Z,20.93
2022-12-12T01:03:44.421Z,21.07
2022-12-12T01:06:12.535Z,21.70
2022-12-12T01:08:41.588Z,20.07
2022-12-12T01:11:11.760Z,21.60
2022-12-12T01:13:41.437Z,21.30
2022-12-12T01:16:11.171Z,21.43
2022-12-12T01:18:40.642Z,20.43
2022-12-12T01:21:10.272Z,20.23
2022-12-12T01:23:38.534Z,20.53
2022-12-12T01:26:11.071Z,21.30
2022-12-12T01:28:39.215Z,19.27
2022-12-12T01:31:08.419Z,20.73
2022-12-12T01:33:38.238Z,20.30
2022-12-12T01:36:07.224Z,19.37
2022-12-12T01:38:35.218Z,21.20
2022-12-12T01:41:03.829Z,19.43
2022-12-12T01:43:31.883Z,21.30
2022-12-12T01:46:35.228Z,20.97
2022-12-12T01:49:12.934Z,21.47
2022-12-12T01:51:42.632Z,20.90
2022-12-12T01:54:15.394Z,22.40
2022-12-12T01:56:45.456Z,21.00
2022-12-12T01:59:16.927Z,20.93
2022-12-12T02:01:45.361Z,20.90
2022-12-12T02:04:15.364Z,21.17
2022-12-12T02:06:44.906Z,22.03
2022-12-12T02:09:15.093Z,21.73
2022-12-12T02:11:45.340Z,21.37
2022-12-12T02:14:17.611Z,20.77
2022-12-12T02:17:15.679Z,21.33
2022-12-12T02:20:29.919Z,20.70
2022-12-12T02:23:19.696Z,20.13
2022-12-12T02:26:26.059Z,19.77
2022-12-12T02:29:25.791Z,20.13
2022-12-12T02:32:03.361Z,18.70
2022-12-12T02:34:39.070Z,18.90
2022-12-12T02:37:11.535Z,19.47
2022-12-12T02:39:48.947Z,20.17
2022-12-12T02:42:28.170Z,20.77
2022-12-12T02:45:00.559Z,20.37
2022-12-12T02:47:32.477Z,20.03
2022-12-12T02:50:06.185Z,19.43
2022-12-12T02:52:34.532Z,19.03
2022-12-12T02:55:02.681Z,18.80
2022-12-12T02:57:30.677Z,19.10
2022-12-12T03:00:01.523Z,18.60
2022-12-12T03:03:19.545Z,19.27
2022-12-12T03:06:18.041Z,19.03
2022-12-12T03:09:00.385Z,18.87
2022-12-12T03:11:40.083Z,19.40
2022-12-12T03:14:15.027Z,19.27
2022-12-12T03:16:48.471Z,18.03
2022-12-12T03:19:25.472Z,18.93
2022-12-12T03:22:01.320Z,19.17
2022-12-12T03:24:33.975Z,18.80
2022-12-12T03:27:05.939Z,17.37
2022-12-12T03:29:39.344Z,18.23
2022-12-12T03:32:11.807Z,18.40
2022-12-12T03:34:44.710Z,18.57
2022-12-12T03:37:18.027Z,18.43
2022-12-12T03:39:51.029Z,19.07
2022-12-12T03:42:25.432Z,17.83
2022-12-12T03:44:59.057Z,17.90
2022-12-12T03:47:33.156Z,18.07
2022-12-12T03:50:07.294Z,17.90
2022-12-12T03:52:40.487Z,17.23
2022-12-12T03:55:13.417Z,17.13
2022-12-12T03:57:47.060Z,17.00
2022-12-12T04:00:17.032Z,17.27
2022-12-12T04:02:52.528Z,16.73
2022-12-12T04:05:25.341Z,16.00
2022-12-12T04:07:59.214Z,16.33
2022-12-12T04:10:47.531Z,16.57
2022-12-12T04:13:31.927Z,17.33
2022-12-12T04:16:05.367Z,15.90
2022-12-12T04:18:42.223Z,15.90
2022-12-12T04:21:48.754Z,15.40
2022-12-12T04:24:25.682Z,15.17
2022-12-12T04:27:00.098Z,16.10
2022-12-12T04:29:33.652Z,16.37
2022-12-12T04:32:09.937Z,15.87
2022-12-12T04:34:43.509Z,15.90
2022-12-12T04:37:16.879Z,15.63
2022-12-12T04:39:47.267Z,15.37
2022-12-12T04:42:22.642Z,14.43
2022-12-12T04:44:53.524Z,16.10
2022-12-12T04:47:23.048Z,15.60
2022-12-12T04:49:52.948Z,15.40
2022-12-12T04:52:23.550Z,14.80
2022-12-12T04:54:59.363Z,15.70
2022-12-12T04:57:32.585Z,15.40
2022-12-12T05:00:00.861Z,14.57
2022-12-12T05:02:38.253Z,14.50
2022-12-12T05:05:12.071Z,14.83
2022-12-12T05:07:44.112Z,13.17
2022-12-12T05:10:14.537Z,13.70
2022-12-12T05:12:45.732Z,13.27
2022-12-12T05:15:15.784Z,14.83
2022-12-12T05:17:46.646Z,14.43
2022-12-12T05:20:16.448Z,13.83
2022-12-12T05:22:45.843Z,15.13
2022-12-12T05:25:14.367Z,13.97
2022-12-12T05:27:42.671Z,14.80
2022-12-12T05:30:12.185Z,14.00
2022-12-12T05:32:40.237Z,15.27
2022-12-12T05:35:10.093Z,14.33
2022-12-12T05:37:38.620Z,14.67
2022-12-12T05:40:09.531Z,15.07
2022-12-12T05:42:37.499Z,14.87
2022-12-12T05:45:06.603Z,16.37
2022-12-12T05:47:34.608Z,15.90
2022-12-12T05:50:02.714Z,16.47
2022-12-12T05:52:30.856Z,16.60
2022-12-12T05:54:58.935Z,16.83
2022-12-12T05:57:28.467Z,17.13
2022-12-12T05:59:56.674Z,16.33
2022-12-12T06:02:24.781Z,17.10
2022-12-12T06:04:52.823Z,16.40
2022-12-12T06:07:20.903Z,17.10
2022-12-12T06:09:51.286Z,17.97
2022-12-12T06:12:19.267Z,16.57
2022-12-12T06:14:48.642Z,17.53
2022-12-12T06:17:18.887Z,18.13
2022-12-12T06:19:47.102Z,17.50
2022-12-12T06:22:15.098Z,16.57
2022-12-12T06:24:43.301Z,17.27
2022-12-12T06:27:11.312Z,17.20
2022-12-12T06:29:39.315Z,16.47
2022-12-12T06:32:08.758Z,16.80
2022-12-12T06:34:38.349Z,17.93
2022-12-12T06:37:10.666Z,17.67
2022-12-12T06:39:42.143Z,16.63
2022-12-12T06:42:10.432Z,17.03
2022-12-12T06:44:38.488Z,16.97
2022-12-12T06:47:09.095Z,17.20
2022-12-12T06:49:37.241Z,16.40
2022-12-12T06:52:05.560Z,16.83
2022-12-12T06:54:33.580Z,15.60
2022-12-12T06:57:01.599Z,16.20
2022-12-12T06:59:30.286Z,15.83
2022-12-12T07:01:58.684Z,15.53
2022-12-12T07:04:28.192Z,16.77
2022-12-12T07:06:56.187Z,15.87
2022-12-12T07:09:24.200Z,16.57
2022-12-12T07:11:52.179Z,16.47
2022-12-12T07:14:20.199Z,15.37
2022-12-12T07:16:48.167Z,16.00
2022-12-12T07:19:16.232Z,16.30
2022-12-12T07:21:45.560Z,16.03
2022-12-12T07:24:15.597Z,16.67
2022-12-12T07:26:44.364Z,16.70
2022-12-12T07:29:13.051Z,17.37
2022-12-12T07:31:41.059Z,16.50
2022-12-12T07:34:09.036Z,18.00
2022-12-12T07:36:37.024Z,17.67
2022-12-12T07:39:06.383Z,17.33
2022-12-12T07:41:34.557Z,17.00
2022-12-12T07:44:02.771Z,17.60
2022-12-12T07:46:30.784Z,18.03
2022-12-12T07:48:58.871Z,17.57
2022-12-12T07:51:26.926Z,18.13
2022-12-12T07:53:54.968Z,19.83
2022-12-12T07:56:24.323Z,18.57
2022-12-12T07:58:53.500Z,18.90
2022-12-12T08:01:23.422Z,19.07
2022-12-12T08:03:52.568Z,18.63
2022-12-12T08:06:22.528Z,18.93
2022-12-12T08:08:52.155Z,19.87
2022-12-12T08:11:21.965Z,18.20
2022-12-12T08:13:52.098Z,18.53
2022-12-12T08:16:22.543Z,20.37
2022-12-12T08:18:50.711Z,19.90
2022-12-12T08:21:25.300Z,20.60
2022-12-12T08:23:57.760Z,19.80
2022-12-12T08:26:27.044Z,21.53
2022-12-12T08:28:57.234Z,20.27
2022-12-12T08:31:25.646Z,21.77
2022-12-12T08:33:54.155Z,21.30
2022-12-12T08:36:24.062Z,21.63
2022-12-12T08:38:52.808Z,22.23
2022-12-12T08:41:21.428Z,22.43
2022-12-12T08:43:50.634Z,23.03
2022-12-12T08:46:20.843Z,22.23
2022-12-12T08:48:49.637Z,22.97
2022-12-12T08:51:18.370Z,23.07
2022-12-12T08:53:46.897Z,22.97
2022-12-12T08:56:15.076Z,22.27
2022-12-12T08:58:43.470Z,24.17
2022-12-12T09:01:12.395Z,23.90
2022-12-12T09:03:41.803Z,23.13
2022-12-12T09:06:12.304Z,22.10
2022-12-12T09:08:40.358Z,23.20
2022-12-12T09:11:10.531Z,21.90
2022-12-12T09:13:39.888Z,22.97
2022-12-12T09:16:11.870Z,23.20
2022-12-12T09:18:48.034Z,22.23
2022-12-12T09:21:17.047Z,22.83
2022-12-12T09:23:45.420Z,22.03
2022-12-12T09:26:13.862Z,21.03
2022-12-12T09:28:42.510Z,21.57
2022-12-12T09:31:13.331Z,21.13
2022-12-12T09:33:43.355Z,22.30
2022-12-12T09:36:13.597Z,21.63
2022-12-12T09:38:41.849Z,22.50
2022-12-12T09:41:15.301Z,22.60
2022-12-12T09:43:51.449Z,22.93
2022-12-12T09:46:28.725Z,22.90
2022-12-12T09:49:14.148Z,22.33
2022-12-12T09:51:43.444Z,21.83
2022-12-12T09:54:15.679Z,22.50
2022-12-12T09:56:56.532Z,21.40
2022-12-12T09:59:33.593Z,21.83
2022-12-12T10:02:16.771Z,21.77
2022-12-12T10:04:59.289Z,22.07
2022-12-12T10:07:38.839Z,20.90
2022-12-12T10:10:18.395Z,21.80
2022-12-12T10:12:47.784Z,21.63
2022-12-12T10:15:29.896Z,21.73
2022-12-12T10:18:01.077Z,22.47
2022-12-12T10:20:32.366Z,21.97
2022-12-12T10:23:05.253Z,22.20
2022-12-12T10:25:42.005Z,23.87
2022-12-12T10:28:15.159Z,24.67
2022-12-12T10:30:58.600Z,24.23
2022-12-12T10:33:35.352Z,25.60
2022-12-12T10:36:19.529Z,26.20
2022-12-12T10:39:03.384Z,26.27
2022-12-12T10:41:39.525Z,25.60
2022-12-12T10:44:18.880Z,25.93
2022-12-12T10:46:50.787Z,26.17
2022-12-12T10:49:20.457Z,25.20
2022-12-12T10:51:51.167Z,24.87
2022-12-12T10:54:22.699Z,24.27
2022-12-12T10:57:20.233Z,24.00
2022-12-12T10:59:50.120Z,25.87
2022-12-12T11:02:29.926Z,25.70
2022-12-12T11:05:07.912Z,24.73
2022-12-12T11:07:40.412Z,23.90
2022-12-12T11:10:30.569Z,23.43
2022-12-12T11:13:03.374Z,24.30
2022-12-12T11:15:39.821Z,22.37
2022-12-12T11:18:14.384Z,22.70
2022-12-12T11:20:47.566Z,21.80
2022-12-12T11:23:20.883Z,22.80
2022-12-12T11:25:56.564Z,23.17
2022-12-12T11:28:26.529Z,21.90
2022-12-12T11:30:57.040Z,23.33
2022-12-12T11:33:35.585Z,22.67
2022-12-12T11:36:06.878Z,24.03
2022-12-12T11:38:41.258Z,22.63
2022-12-12T11:41:11.891Z,23.43
2022-12-12T11:43:55.150Z,23.00
2022-12-12T11:46:29.107Z,22.77
2022-12-12T11:49:00.382Z,22.97
2022-12-12T11:51:40.017Z,23.13
2022-12-12T11:54:14.509Z,24.13
2022-12-12T11:56:50.223Z,23.00
2022-12-12T11:59:41.083Z,22.43
2022-12-12T12:02:38.388Z,23.83
2022-12-12T12:05:15.697Z,23.97
2022-12-12T12:08:00.641Z,22.27
2022-12-12T12:10:53.320Z,24.50
2022-12-12T12:13:37.348Z,24.73
2022-12-12T12:16:13.199Z,25.57
2022-12-12T12:18:55.363Z,24.13
2022-12-12T12:21:38.350Z,25.27
2022-12-12T12:24:23.279Z,24.93
2022-12-12T12:27:00.925Z,22.07
2022-12-12T12:29:44.406Z,20.77
2022-12-12T12:32:22.492Z,21.63
2022-12-12T12:35:04.227Z,20.57
2022-12-12T12:37:44.360Z,20.67
2022-12-12T12:40:28.055Z,20.13
2022-12-12T12:43:12.540Z,22.23
2022-12-12T12:45:46.458Z,21.50
2022-12-12T12:48:21.265Z,20.50
2022-12-12T12:50:53.472Z,20.97
2022-12-12T12:53:32.928Z,22.33
2022-12-12T12:56:06.104Z,21.37
2022-12-12T12:58:41.774Z,21.87
2022-12-12T13:01:14.734Z,20.97
2022-12-12T13:03:49.014Z,22.20
2022-12-12T13:06:21.846Z,21.50
2022-12-12T13:08:59.224Z,19.90
2022-12-12T13:11:32.983Z,19.73
2022-12-12T13:14:13.499Z,20.90
2022-12-12T13:16:43.488Z,20.73
2022-12-12T13:19:17.763Z,22.53
2022-12-12T13:21:50.526Z,20.40
2022-12-12T13:24:23.952Z,22.07
2022-12-12T13:27:01.536Z,20.60
2022-12-12T13:29:49.080Z,20.37
2022-12-12T13:33:00.821Z,21.80
2022-12-12T13:35:32.196Z,19.67
2022-12-12T13:38:01.089Z,21.50
2022-12-12T13:40:33.272Z,21.53
2022-12-12T13:43:09.441Z,20.60
2022-12-12T13:45:45.124Z,21.47
2022-12-12T13:48:48.221Z,21.33
2022-12-12T13:51:44.175Z,21.63
2022-12-12T13:54:51.392Z,20.83
2022-12-12T13:57:32.484Z,20.83
2022-12-12T14:00:31.184Z,21.80
2022-12-12T14:03:05.861Z,21.03
2022-12-12T14:05:37.082Z,20.87
2022-12-12T14:08:21.475Z,21.07
2022-12-12T14:10:56.393Z,19.63
2022-12-12T14:13:34.631Z,21.53
2022-12-12T14:16:06.831Z,21.53
2022-12-12T14:18:39.767Z,21.63
2022-12-12T14:21:11.091Z,21.53
2022-12-12T14:23:42.290Z,20.73
2022-12-12T14:26:48.006Z,21.70
2022-12-12T14:29:27.768Z,20.50
2022-12-12T14:32:10.370Z,20.70
2022-12-12T14:34:47.379Z,21.67
2022-12-12T14:37:37.380Z,21.37
2022-12-12T14:40:13.958Z,20.93
2022-12-12T14:43:19.523Z,20.37
2022-12-12T14:45:38.791Z,20.10
2022-12-12T14:48:28.636Z,20.90
2022-12-12T14:51:09.594Z,21.27
2022-12-12T14:53:48.272Z,20.50
2022-12-12T14:56:19.044Z,20.73
2022-12-12T14:58:50.564Z,21.23
2022-12-12T15:01:27.984Z,20.63
2022-12-12T15:03:56.191Z,20.50
2022-12-12T15:06:37.652Z,20.80
2022-12-12T15:09:21.072Z,20.87
2022-12-12T15:11:50.150Z,21.37
2022-12-12T15:14:23.920Z,22.10
2022-12-12T15:16:56.432Z,22.20
2022-12-12T15:19:31.545Z,21.73
2022-12-12T15:22:01.144Z,22.93
2022-12-12T15:24:31.109Z,22.43
2022-12-12T15:27:00.636Z,23.07
2022-12-12T15:29:30.740Z,23.37
2022-12-12T15:32:02.527Z,24.80
2022-12-12T15:34:40.180Z,22.93
2022-12-12T15:37:20.480Z,23.27
2022-12-12T15:39:59.550Z,23.47
2022-12-12T15:42:28.092Z,24.27
2022-12-12T15:44:56.528Z,25.17
2022-12-12T15:47:25.991Z,24.17
2022-12-12T15:49:54.728Z,24.33
2022-12-12T15:52:27.789Z,25.80
2022-12-12T15:54:58.651Z,23.73
2022-12-12T15:57:28.333Z,25.90
2022-12-12T15:59:58.890Z,25.27
2022-12-12T16:02:29.035Z,24.97
2022-12-12T16:05:01.949Z,26.07
2022-12-12T16:07:36.540Z,24.57
2022-12-12T16:10:21.001Z,25.00
2022-12-12T16:13:06.944Z,25.63
2022-12-12T16:15:37.363Z,24.83
2022-12-12T16:18:17.754Z,25.60
2022-12-12T16:20:48.726Z,26.70
2022-12-12T16:23:29.976Z,26.63
2022-12-12T16:25:58.872Z,27.10
2022-12-12T16:28:29.506Z,26.40
2022-12-12T16:31:01.349Z,27.43
2022-12-12T16:33:31.898Z,28.60
2022-12-12T16:36:03.106Z,27.13
2022-12-12T16:38:33.450Z,28.20
2022-12-12T16:41:04.910Z,27.63
2022-12-12T16:43:33.400Z,28.70
2022-12-12T16:46:04.281Z,29.70
2022-12-12T16:48:35.212Z,26.50
2022-12-12T16:51:06.474Z,27.57
2022-12-12T16:53:37.938Z,29.03
2022-12-12T16:56:06.599Z,27.27
2022-12-12T16:58:34.737Z,28.40
2022-12-12T17:01:02.942Z,27.70
2022-12-12T17:03:32.543Z,30.20
2022-12-12T17:06:01.050Z,27.93
2022-12-12T17:08:29.658Z,27.80
2022-12-12T17:11:10.015Z,27.70
2022-12-12T17:13:40.400Z,27.80
2022-12-12T17:16:08.762Z,27.47
2022-12-12T17:18:36.841Z,27.97
2022-12-12T17:21:04.967Z,28.20
2022-12-12T17:23:33.181Z,27.10
2022-12-12T17:26:05.165Z,29.10
2022-12-12T17:28:35.057Z,29.77
2022-12-12T17:31:04.200Z,27.67
2022-12-12T17:33:32.237Z,26.60
2022-12-12T17:36:01.630Z,26.53
2022-12-12T17:38:30.307Z,26.03
2022-12-12T17:40:59.482Z,28.07
2022-12-12T17:43:30.062Z,24.93
2022-12-12T17:45:59.697Z,25.17
2022-12-12T17:48:31.016Z,25.10
2022-12-12T17:51:00.408Z,24.40
2022-12-12T17:53:32.468Z,24.43
2022-12-12T17:56:00.890Z,24.50
2022-12-12T17:58:33.263Z,26.03
2022-12-12T18:01:01.884Z,24.80
2022-12-12T18:03:30.532Z,24.47
2022-12-12T18:06:01.557Z,25.23
2022-12-12T18:08:32.689Z,26.63
2022-12-12T18:11:01.195Z,24.30
2022-12-12T18:13:30.551Z,26.83
2022-12-12T18:16:00.078Z,26.57
2022-12-12T18:18:29.780Z,27.13
2022-12-12T18:20:57.797Z,28.10
2022-12-12T18:23:25.795Z,28.23
2022-12-12T18:25:53.833Z,29.27
2022-12-12T18:28:21.836Z,29.50
2022-12-12T18:30:52.466Z,28.43
2022-12-12T18:33:20.450Z,29.13
2022-12-12T18:35:48.427Z,28.83
2022-12-12T18:38:17.520Z,28.10
2022-12-12T18:40:48.300Z,29.13
2022-12-12T18:43:16.311Z,28.30
2022-12-12T18:45:44.371Z,28.90
2022-12-12T18:48:13.776Z,27.67
2022-12-12T18:50:41.772Z,30.73
2022-12-12T18:53:13.101Z,30.00
2022-12-12T18:55:43.315Z,29.07
2022-12-12T18:58:12.290Z,31.93
2022-12-12T19:00:40.980Z,30.53
2022-12-12T19:03:09.526Z,31.23
2022-12-12T19:05:43.244Z,32.10
2022-12-12T19:08:12.039Z,32.03
2022-12-12T19:10:40.861Z,30.77
2022-12-12T19:13:08.855Z,30.87
2022-12-12T19:15:36.860Z,29.63
2022-12-12T19:18:05.240Z,30.63
2022-12-12T19:20:33.271Z,29.87
2022-12-12T19:23:02.641Z,30.13
2022-12-12T19:25:30.911Z,30.17
2022-12-12T19:27:59.768Z,29.63
2022-12-12T19:30:29.311Z,30.37
2022-12-12T19:32:57.415Z,28.43
2022-12-12T19:35:25.531Z,29.20
2022-12-12T19:37:53.594Z,27.90
2022-12-12T19:40:25.498Z,28.80
2022-12-12T19:42:53.603Z,27.63
2022-12-12T19:45:24.197Z,27.40
2022-12-12T19:47:52.216Z,26.10
2022-12-12T19:50:20.294Z,25.00
2022-12-12T19:52:51.150Z,22.83
2022-12-12T19:55:19.414Z,21.40
2022-12-12T19:57:48.818Z,17.10
2022-12-12T20:00:19.809Z,15.20
2022-12-12T20:02:47.939Z,15.00
2022-12-12T20:05:16.066Z,14.23
2022-12-12T20:07:44.126Z,14.20
2022-12-12T20:10:13.268Z,12.77
2022-12-12T20:12:51.859Z,12.10
2022-12-12T20:15:25.680Z,11.43
2022-12-12T20:17:53.676Z,11.23
2022-12-12T20:20:21.680Z,11.10
2022-12-12T20:22:49.949Z,10.70
2022-12-12T20:25:18.220Z,11.63
2022-12-12T20:27:46.228Z,11.60
2022-12-12T20:30:15.091Z,10.70
2022-12-12T20:32:44.632Z,11.10
2022-12-12T20:35:13.022Z,11.40
2022-12-12T20:37:41.065Z,11.73
2022-12-12T20:40:10.294Z,11.17
2022-12-12T20:42:38.541Z,11.60
2022-12-12T20:45:12.347Z,12.00
2022-12-12T20:47:40.585Z,11.53
2022-12-12T20:50:10.715Z,11.53
2022-12-12T20:52:39.636Z,12.07
2022-12-12T20:55:09.174Z,12.07
2022-12-12T20:57:37.901Z,12.37
2022-12-12T21:00:07.244Z,12.50
2022-12-12T21:02:35.313Z,11.80
2022-12-12T21:05:05.570Z,12.10
2022-12-12T21:07:34.981Z,11.77
2022-12-12T21:10:03.060Z,11.93
2022-12-12T21:12:31.277Z,11.57
2022-12-12T21:15:14.457Z,11.93
2022-12-12T21:17:42.634Z,12.53
2022-12-12T21:20:12.418Z,13.33
2022-12-12T21:22:41.972Z,12.70
2022-12-12T21:25:13.661Z,13.17
2022-12-12T21:27:41.935Z,13.53
2022-12-12T21:30:11.466Z,15.17
2022-12-12T21:32:39.484Z,14.83
2022-12-12T21:35:08.432Z,15.33
2022-12-12T21:37:40.390Z,14.83
2022-12-12T21:40:11.898Z,15.07
2022-12-12T21:42:39.942Z,15.83
2022-12-12T21:45:11.582Z,14.37
2022-12-12T21:47:39.831Z,15.00
2022-12-12T21:50:09.132Z,15.10
2022-12-12T21:52:37.180Z,15.20
2022-12-12T21:55:05.599Z,15.87
2022-12-12T21:57:34.978Z,16.37
2022-12-12T22:00:03.233Z,15.60
2022-12-12T22:02:31.262Z,15.47
2022-12-12T22:04:59.287Z,13.80
2022-12-12T22:07:27.253Z,15.50
2022-12-12T22:09:58.113Z,13.73
2022-12-12T22:12:40.010Z,14.03
2022-12-12T22:15:08.565Z,13.53
2022-12-12T22:17:36.563Z,13.53
2022-12-12T22:20:05.129Z,12.73
2022-12-12T22:22:33.124Z,13.80
2022-12-12T22:25:01.424Z,15.13
2022-12-12T22:27:29.389Z,15.00
2022-12-12T22:29:58.744Z,14.97
2022-12-12T22:32:28.428Z,14.67
2022-12-12T22:34:58.275Z,14.87
2022-12-12T22:37:26.357Z,14.37
2022-12-12T22:39:54.350Z,13.57
2022-12-12T22:42:22.337Z,13.97
2022-12-12T22:44:50.349Z,14.77
2022-12-12T22:47:19.737Z,13.83
2022-12-12T22:49:47.746Z,13.87
2022-12-12T22:52:15.737Z,14.77
2022-12-12T22:54:43.716Z,13.50
2022-12-12T22:57:11.723Z,12.87
2022-12-12T22:59:39.849Z,13.70
2022-12-12T23:02:08.140Z,13.67
2022-12-12T23:04:37.668Z,13.13
2022-12-12T23:07:06.727Z,13.40
2022-12-12T23:09:34.902Z,13.20
2022-12-12T23:12:02.880Z,13.10
2022-12-12T23:14:31.548Z,13.53
2022-12-12T23:16:59.541Z,12.17
2022-12-12T23:19:28.890Z,12.60
2022-12-12T23:21:58.262Z,12.33
2022-12-12T23:24:26.394Z,12.27
2022-12-12T23:26:54.412Z,12.27
2022-12-12T23:29:23.175Z,12.17
2022-12-12T23:31:51.487Z,10.90
2022-12-12T23:34:23.150Z,11.77
2022-12-12T23:36:51.787Z,11.47
2022-12-12T23:39:21.735Z,11.90
2022-12-12T23:41:49.987Z,11.63
2022-12-12T23:44:20.546Z,11.80
2022-12-12T23:46:51.628Z,12.20
2022-12-12T23:49:21.155Z,12.10
2022-12-12T23:51:50.919Z,11.60
2022-12-12T23:54:22.091Z,12.40
2022-12-12T23:56:51.148Z,11.63
2022-12-12T23:59:21.640Z,11.27
